sensor_id;sensor_type;location;lat;lon;timestamp;P1;durP1;ratioP1;P2;durP2;ratioP2
61322;SDS011;47203;48.428;11.974;2023-01-25T00:02:05;13.50;;;9.27;;
61322;SDS011;47203;48.428;11.974;2023-01-25T00:04:10;15.02;;;9.73;;
61322;SDS011;47203;48.428;11.974;2023-01-25T00:06:15;15.35;;;9.70;;
61322;SDS011;47203;48.428;11.974;2023-01-25T00:08:20;14.43;;;9.73;;
61322;SDS011;47203;48.428;11.974;2023-01-25T00:10:28;15.40;;;9.13;;
61322;SDS011;47203;48.428;11.974;2023-01-25T00:12:33;14.10;;;10.00;;
61322;SDS011;47203;48.428;11.974;2023-01-25T00:14:37;13.75;;;9.52;;
61322;SDS011;47203;48.428;11.974;2023-01-25T00:16:43;14.65;;;10.35;;
61322;SDS011;47203;48.428;11.974;2023-01-25T00:18:48;16.42;;;9.63;;
61322;SDS011;47203;48.428;11.974;2023-01-25T00:20:53;15.50;;;9.35;;
61322;SDS011;47203;48.428;11.974;2023-01-25T00:22:58;15.80;;;9.90;;
61322;SDS011;47203;48.428;11.974;2023-01-25T00:25:03;15.38;;;9.88;;
61322;SDS011;47203;48.428;11.974;2023-01-25T00:27:11;16.75;;;9.80;;
61322;SDS011;47203;48.428;11.974;2023-01-25T00:29:16;18.33;;;11.68;;
61322;SDS011;47203;48.428;11.974;2023-01-25T00:31:24;13.70;;;8.98;;
61322;SDS011;47203;48.428;11.974;2023-01-25T00:33:39;15.32;;;10.60;;
61322;SDS011;47203;48.428;11.974;2023-01-25T00:35:48;13.88;;;9.05;;
61322;SDS011;47203;48.428;11.974;2023-01-25T00:37:53;15.55;;;10.23;;
61322;SDS011;47203;48.428;11.974;2023-01-25T00:39:59;14.38;;;9.35;;
61322;SDS011;47203;48.428;11.974;2023-01-25T00:42:04;15.52;;;10.52;;
61322;SDS011;47203;48.428;11.974;2023-01-25T00:44:11;14.18;;;9.35;;
61322;SDS011;47203;48.428;11.974;2023-01-25T00:46:16;14.63;;;9.93;;
61322;SDS011;47203;48.428;11.974;2023-01-25T00:48:21;15.25;;;10.18;;
61322;SDS011;47203;48.428;11.974;2023-01-25T00:50:26;15.38;;;10.27;;
61322;SDS011;47203;48.428;11.974;2023-01-25T00:52:31;17.02;;;11.32;;
61322;SDS011;47203;48.428;11.974;2023-01-25T00:54:36;14.98;;;9.77;;
61322;SDS011;47203;48.428;11.974;2023-01-25T00:56:41;15.68;;;9.90;;
61322;SDS011;47203;48.428;11.974;2023-01-25T00:58:46;15.32;;;9.95;;
61322;SDS011;47203;48.428;11.974;2023-01-25T01:00:55;16.13;;;10.35;;
61322;SDS011;47203;48.428;11.974;2023-01-25T01:03:01;15.57;;;9.73;;
61322;SDS011;47203;48.428;11.974;2023-01-25T01:05:06;15.13;;;10.40;;
61322;SDS011;47203;48.428;11.974;2023-01-25T01:07:12;19.10;;;10.23;;
61322;SDS011;47203;48.428;11.974;2023-01-25T01:09:19;15.88;;;9.80;;
61322;SDS011;47203;48.428;11.974;2023-01-25T01:11:26;14.73;;;8.82;;
61322;SDS011;47203;48.428;11.974;2023-01-25T01:13:32;15.95;;;10.25;;
61322;SDS011;47203;48.428;11.974;2023-01-25T01:15:37;16.35;;;10.43;;
61322;SDS011;47203;48.428;11.974;2023-01-25T01:17:44;14.23;;;9.48;;
61322;SDS011;47203;48.428;11.974;2023-01-25T01:19:49;14.82;;;10.15;;
61322;SDS011;47203;48.428;11.974;2023-01-25T01:21:54;15.65;;;9.85;;
61322;SDS011;47203;48.428;11.974;2023-01-25T01:24:02;16.20;;;10.48;;
61322;SDS011;47203;48.428;11.974;2023-01-25T01:26:10;16.10;;;9.93;;
61322;SDS011;47203;48.428;11.974;2023-01-25T01:28:17;15.95;;;10.35;;
61322;SDS011;47203;48.428;11.974;2023-01-25T01:30:22;15.80;;;10.15;;
61322;SDS011;47203;48.428;11.974;2023-01-25T01:32:27;15.07;;;9.93;;
61322;SDS011;47203;48.428;11.974;2023-01-25T01:34:35;16.02;;;10.55;;
61322;SDS011;47203;48.428;11.974;2023-01-25T01:36:40;14.65;;;10.25;;
61322;SDS011;47203;48.428;11.974;2023-01-25T01:38:45;19.40;;;11.60;;
61322;SDS011;47203;48.428;11.974;2023-01-25T01:40:50;16.63;;;10.38;;
61322;SDS011;47203;48.428;11.974;2023-01-25T01:42:56;15.05;;;10.30;;
61322;SDS011;47203;48.428;11.974;2023-01-25T01:47:40;15.05;;;10.63;;
61322;SDS011;47203;48.428;11.974;2023-01-25T01:49:53;17.95;;;11.30;;
61322;SDS011;47203;48.428;11.974;2023-01-25T01:52:05;17.23;;;10.52;;
61322;SDS011;47203;48.428;11.974;2023-01-25T01:54:16;17.85;;;11.38;;
61322;SDS011;47203;48.428;11.974;2023-01-25T01:56:28;17.83;;;11.75;;
61322;SDS011;47203;48.428;11.974;2023-01-25T01:58:38;15.70;;;10.43;;
61322;SDS011;47203;48.428;11.974;2023-01-25T02:00:45;26.35;;;12.43;;
61322;SDS011;47203;48.428;11.974;2023-01-25T02:02:49;18.27;;;11.20;;
61322;SDS011;47203;48.428;11.974;2023-01-25T02:04:58;18.08;;;11.40;;
61322;SDS011;47203;48.428;11.974;2023-01-25T02:07:10;16.55;;;10.55;;
61322;SDS011;47203;48.428;11.974;2023-01-25T02:09:21;16.25;;;10.00;;
61322;SDS011;47203;48.428;11.974;2023-01-25T02:11:28;16.60;;;10.00;;
61322;SDS011;47203;48.428;11.974;2023-01-25T02:13:36;19.67;;;11.20;;
61322;SDS011;47203;48.428;11.974;2023-01-25T02:15:42;16.25;;;10.20;;
61322;SDS011;47203;48.428;11.974;2023-01-25T02:17:49;17.58;;;11.30;;
61322;SDS011;47203;48.428;11.974;2023-01-25T02:19:59;18.35;;;11.25;;
61322;SDS011;47203;48.428;11.974;2023-01-25T02:22:10;16.25;;;10.07;;
61322;SDS011;47203;48.428;11.974;2023-01-25T02:24:24;15.00;;;10.60;;
61322;SDS011;47203;48.428;11.974;2023-01-25T02:26:36;17.20;;;11.15;;
61322;SDS011;47203;48.428;11.974;2023-01-25T02:28:44;17.27;;;10.38;;
61322;SDS011;47203;48.428;11.974;2023-01-25T02:30:51;17.48;;;12.25;;
61322;SDS011;47203;48.428;11.974;2023-01-25T02:32:57;17.05;;;10.90;;
61322;SDS011;47203;48.428;11.974;2023-01-25T02:35:02;15.18;;;10.02;;
61322;SDS011;47203;48.428;11.974;2023-01-25T02:37:08;15.95;;;10.52;;
61322;SDS011;47203;48.428;11.974;2023-01-25T02:39:18;17.02;;;10.27;;
61322;SDS011;47203;48.428;11.974;2023-01-25T02:41:26;20.00;;;11.60;;
61322;SDS011;47203;48.428;11.974;2023-01-25T02:43:38;19.67;;;12.05;;
61322;SDS011;47203;48.428;11.974;2023-01-25T02:45:44;18.40;;;11.10;;
61322;SDS011;47203;48.428;11.974;2023-01-25T02:47:54;16.88;;;11.32;;
61322;SDS011;47203;48.428;11.974;2023-01-25T02:49:59;13.52;;;9.68;;
61322;SDS011;47203;48.428;11.974;2023-01-25T02:52:06;14.40;;;9.48;;
61322;SDS011;47203;48.428;11.974;2023-01-25T02:54:11;16.17;;;9.93;;
61322;SDS011;47203;48.428;11.974;2023-01-25T02:56:17;16.40;;;10.43;;
61322;SDS011;47203;48.428;11.974;2023-01-25T02:58:22;16.55;;;10.20;;
61322;SDS011;47203;48.428;11.974;2023-01-25T03:00:30;15.93;;;10.38;;
61322;SDS011;47203;48.428;11.974;2023-01-25T03:02:35;15.93;;;10.45;;
61322;SDS011;47203;48.428;11.974;2023-01-25T03:04:40;15.55;;;10.35;;
61322;SDS011;47203;48.428;11.974;2023-01-25T03:06:45;19.88;;;10.90;;
61322;SDS011;47203;48.428;11.974;2023-01-25T03:08:52;13.82;;;9.45;;
61322;SDS011;47203;48.428;11.974;2023-01-25T03:10:57;16.00;;;9.93;;
61322;SDS011;47203;48.428;11.974;2023-01-25T03:13:04;15.93;;;10.60;;
61322;SDS011;47203;48.428;11.974;2023-01-25T03:15:09;17.73;;;11.40;;
61322;SDS011;47203;48.428;11.974;2023-01-25T03:17:17;17.15;;;10.38;;
61322;SDS011;47203;48.428;11.974;2023-01-25T03:19:22;15.52;;;11.40;;
61322;SDS011;47203;48.428;11.974;2023-01-25T03:21:27;17.88;;;10.73;;
61322;SDS011;47203;48.428;11.974;2023-01-25T03:23:32;17.05;;;11.85;;
61322;SDS011;47203;48.428;11.974;2023-01-25T03:25:38;18.50;;;11.38;;
61322;SDS011;47203;48.428;11.974;2023-01-25T03:27:47;16.23;;;11.15;;
61322;SDS011;47203;48.428;11.974;2023-01-25T03:29:53;16.35;;;10.50;;
61322;SDS011;47203;48.428;11.974;2023-01-25T03:32:01;14.43;;;10.20;;
61322;SDS011;47203;48.428;11.974;2023-01-25T03:34:09;16.85;;;10.65;;
61322;SDS011;47203;48.428;11.974;2023-01-25T03:36:15;16.45;;;10.77;;
61322;SDS011;47203;48.428;11.974;2023-01-25T03:38:20;14.98;;;9.43;;
61322;SDS011;47203;48.428;11.974;2023-01-25T03:40:25;15.95;;;10.40;;
61322;SDS011;47203;48.428;11.974;2023-01-25T03:42:30;17.45;;;10.82;;
61322;SDS011;47203;48.428;11.974;2023-01-25T03:44:36;15.00;;;10.13;;
61322;SDS011;47203;48.428;11.974;2023-01-25T03:46:41;13.88;;;9.00;;
61322;SDS011;47203;48.428;11.974;2023-01-25T03:48:46;16.88;;;10.32;;
61322;SDS011;47203;48.428;11.974;2023-01-25T03:50:54;17.88;;;10.85;;
61322;SDS011;47203;48.428;11.974;2023-01-25T03:53:02;15.88;;;10.45;;
61322;SDS011;47203;48.428;11.974;2023-01-25T03:55:10;15.43;;;10.32;;
61322;SDS011;47203;48.428;11.974;2023-01-25T03:57:17;16.98;;;9.65;;
61322;SDS011;47203;48.428;11.974;2023-01-25T03:59:27;14.13;;;9.85;;
61322;SDS011;47203;48.428;11.974;2023-01-25T04:01:32;14.13;;;9.77;;
61322;SDS011;47203;48.428;11.974;2023-01-25T04:03:37;16.65;;;9.95;;
61322;SDS011;47203;48.428;11.974;2023-01-25T04:05:43;15.15;;;9.48;;
61322;SDS011;47203;48.428;11.974;2023-01-25T04:07:53;14.98;;;9.50;;
61322;SDS011;47203;48.428;11.974;2023-01-25T04:10:07;15.23;;;9.82;;
61322;SDS011;47203;48.428;11.974;2023-01-25T04:12:17;13.75;;;9.50;;
61322;SDS011;47203;48.428;11.974;2023-01-25T04:14:22;15.25;;;10.23;;
61322;SDS011;47203;48.428;11.974;2023-01-25T04:16:46;16.00;;;10.70;;
61322;SDS011;47203;48.428;11.974;2023-01-25T04:19:11;15.10;;;9.27;;
61322;SDS011;47203;48.428;11.974;2023-01-25T04:21:16;14.27;;;9.40;;
61322;SDS011;47203;48.428;11.974;2023-01-25T04:23:24;16.73;;;10.35;;
61322;SDS011;47203;48.428;11.974;2023-01-25T04:25:30;15.25;;;10.15;;
61322;SDS011;47203;48.428;11.974;2023-01-25T04:27:35;15.10;;;9.52;;
61322;SDS011;47203;48.428;11.974;2023-01-25T04:29:44;14.02;;;8.60;;
61322;SDS011;47203;48.428;11.974;2023-01-25T04:31:53;15.82;;;9.68;;
61322;SDS011;47203;48.428;11.974;2023-01-25T04:33:58;13.88;;;9.02;;
61322;SDS011;47203;48.428;11.974;2023-01-25T04:36:03;15.75;;;10.00;;
61322;SDS011;47203;48.428;11.974;2023-01-25T04:38:09;13.93;;;9.68;;
61322;SDS011;47203;48.428;11.974;2023-01-25T04:40:20;17.65;;;9.88;;
61322;SDS011;47203;48.428;11.974;2023-01-25T04:42:25;13.93;;;9.48;;
61322;SDS011;47203;48.428;11.974;2023-01-25T04:44:31;16.60;;;10.30;;
61322;SDS011;47203;48.428;11.974;2023-01-25T04:46:36;17.10;;;9.65;;
61322;SDS011;47203;48.428;11.974;2023-01-25T04:48:41;14.45;;;9.25;;
61322;SDS011;47203;48.428;11.974;2023-01-25T04:50:46;15.23;;;10.13;;
61322;SDS011;47203;48.428;11.974;2023-01-25T04:52:54;15.05;;;10.48;;
61322;SDS011;47203;48.428;11.974;2023-01-25T04:55:02;18.08;;;9.50;;
61322;SDS011;47203;48.428;11.974;2023-01-25T04:57:17;16.23;;;10.32;;
61322;SDS011;47203;48.428;11.974;2023-01-25T04:59:25;16.73;;;10.70;;
61322;SDS011;47203;48.428;11.974;2023-01-25T05:01:30;17.63;;;9.82;;
61322;SDS011;47203;48.428;11.974;2023-01-25T05:03:39;17.23;;;11.20;;
61322;SDS011;47203;48.428;11.974;2023-01-25T05:05:58;22.23;;;13.32;;
61322;SDS011;47203;48.428;11.974;2023-01-25T05:08:03;21.02;;;13.70;;
61322;SDS011;47203;48.428;11.974;2023-01-25T05:10:09;30.60;;;18.92;;
61322;SDS011;47203;48.428;11.974;2023-01-25T05:12:33;26.83;;;16.45;;
61322;SDS011;47203;48.428;11.974;2023-01-25T05:14:40;21.25;;;13.52;;
61322;SDS011;47203;48.428;11.974;2023-01-25T05:16:44;19.75;;;11.38;;
61322;SDS011;47203;48.428;11.974;2023-01-25T05:18:50;16.25;;;10.60;;
61322;SDS011;47203;48.428;11.974;2023-01-25T05:21:00;17.70;;;10.65;;
61322;SDS011;47203;48.428;11.974;2023-01-25T05:23:05;17.48;;;10.82;;
61322;SDS011;47203;48.428;11.974;2023-01-25T05:25:10;16.98;;;10.45;;
61322;SDS011;47203;48.428;11.974;2023-01-25T05:27:27;16.77;;;10.18;;
61322;SDS011;47203;48.428;11.974;2023-01-25T05:29:55;14.20;;;9.30;;
61322;SDS011;47203;48.428;11.974;2023-01-25T05:32:10;17.73;;;11.43;;
61322;SDS011;47203;48.428;11.974;2023-01-25T05:34:18;19.65;;;12.75;;
61322;SDS011;47203;48.428;11.974;2023-01-25T05:36:23;20.33;;;12.98;;
61322;SDS011;47203;48.428;11.974;2023-01-25T05:38:28;19.20;;;11.70;;
61322;SDS011;47203;48.428;11.974;2023-01-25T05:40:33;18.33;;;10.93;;
61322;SDS011;47203;48.428;11.974;2023-01-25T05:42:38;18.25;;;11.15;;
61322;SDS011;47203;48.428;11.974;2023-01-25T05:44:51;17.15;;;10.63;;
61322;SDS011;47203;48.428;11.974;2023-01-25T05:46:59;18.23;;;11.90;;
61322;SDS011;47203;48.428;11.974;2023-01-25T05:49:05;15.35;;;10.07;;
61322;SDS011;47203;48.428;11.974;2023-01-25T05:51:10;17.42;;;10.52;;
61322;SDS011;47203;48.428;11.974;2023-01-25T05:53:16;17.40;;;10.88;;
61322;SDS011;47203;48.428;11.974;2023-01-25T05:55:21;19.60;;;10.95;;
61322;SDS011;47203;48.428;11.974;2023-01-25T05:57:27;19.88;;;11.27;;
61322;SDS011;47203;48.428;11.974;2023-01-25T05:59:34;15.63;;;10.52;;
61322;SDS011;47203;48.428;11.974;2023-01-25T06:01:42;18.30;;;10.68;;
61322;SDS011;47203;48.428;11.974;2023-01-25T06:03:50;18.15;;;11.23;;
61322;SDS011;47203;48.428;11.974;2023-01-25T06:05:56;18.55;;;10.75;;
61322;SDS011;47203;48.428;11.974;2023-01-25T06:08:05;17.52;;;10.95;;
61322;SDS011;47203;48.428;11.974;2023-01-25T06:10:19;16.13;;;11.18;;
61322;SDS011;47203;48.428;11.974;2023-01-25T06:12:25;17.70;;;12.25;;
61322;SDS011;47203;48.428;11.974;2023-01-25T06:14:32;18.70;;;11.32;;
61322;SDS011;47203;48.428;11.974;2023-01-25T06:16:37;20.45;;;12.48;;
61322;SDS011;47203;48.428;11.974;2023-01-25T06:19:20;17.35;;;11.18;;
61322;SDS011;47203;48.428;11.974;2023-01-25T06:21:45;25.70;;;17.25;;
61322;SDS011;47203;48.428;11.974;2023-01-25T06:23:50;19.77;;;12.57;;
61322;SDS011;47203;48.428;11.974;2023-01-25T06:25:56;19.63;;;12.02;;
61322;SDS011;47203;48.428;11.974;2023-01-25T06:28:02;18.38;;;11.52;;
61322;SDS011;47203;48.428;11.974;2023-01-25T06:30:08;18.85;;;11.18;;
61322;SDS011;47203;48.428;11.974;2023-01-25T06:32:14;17.33;;;10.30;;
61322;SDS011;47203;48.428;11.974;2023-01-25T06:34:21;14.75;;;10.02;;
61322;SDS011;47203;48.428;11.974;2023-01-25T06:36:27;20.77;;;12.32;;
61322;SDS011;47203;48.428;11.974;2023-01-25T06:38:32;17.13;;;10.57;;
61322;SDS011;47203;48.428;11.974;2023-01-25T06:40:37;17.92;;;10.73;;
61322;SDS011;47203;48.428;11.974;2023-01-25T06:42:42;20.85;;;15.07;;
61322;SDS011;47203;48.428;11.974;2023-01-25T06:44:47;21.10;;;12.65;;
61322;SDS011;47203;48.428;11.974;2023-01-25T06:46:51;19.42;;;13.07;;
61322;SDS011;47203;48.428;11.974;2023-01-25T06:48:58;22.70;;;12.90;;
61322;SDS011;47203;48.428;11.974;2023-01-25T06:51:07;21.42;;;11.85;;
61322;SDS011;47203;48.428;11.974;2023-01-25T06:53:12;19.83;;;12.65;;
61322;SDS011;47203;48.428;11.974;2023-01-25T06:55:17;21.15;;;12.10;;
61322;SDS011;47203;48.428;11.974;2023-01-25T06:57:22;20.00;;;12.18;;
61322;SDS011;47203;48.428;11.974;2023-01-25T06:59:27;22.08;;;12.25;;
61322;SDS011;47203;48.428;11.974;2023-01-25T07:01:32;21.27;;;12.18;;
61322;SDS011;47203;48.428;11.974;2023-01-25T07:03:38;24.80;;;15.55;;
61322;SDS011;47203;48.428;11.974;2023-01-25T07:05:44;27.50;;;16.25;;
61322;SDS011;47203;48.428;11.974;2023-01-25T07:07:52;24.98;;;14.40;;
61322;SDS011;47203;48.428;11.974;2023-01-25T07:09:57;21.35;;;12.98;;
61322;SDS011;47203;48.428;11.974;2023-01-25T07:12:02;18.02;;;10.43;;
61322;SDS011;47203;48.428;11.974;2023-01-25T07:14:08;17.77;;;10.90;;
61322;SDS011;47203;48.428;11.974;2023-01-25T07:16:13;18.63;;;10.18;;
61322;SDS011;47203;48.428;11.974;2023-01-25T07:18:20;18.08;;;10.73;;
61322;SDS011;47203;48.428;11.974;2023-01-25T07:20:25;22.30;;;12.00;;
61322;SDS011;47203;48.428;11.974;2023-01-25T07:22:30;18.42;;;11.32;;
61322;SDS011;47203;48.428;11.974;2023-01-25T07:24:37;18.70;;;10.43;;
61322;SDS011;47203;48.428;11.974;2023-01-25T07:26:44;20.60;;;11.88;;
61322;SDS011;47203;48.428;11.974;2023-01-25T07:28:50;22.08;;;12.27;;
61322;SDS011;47203;48.428;11.974;2023-01-25T07:30:55;19.63;;;11.98;;
61322;SDS011;47203;48.428;11.974;2023-01-25T07:33:07;21.35;;;13.13;;
61322;SDS011;47203;48.428;11.974;2023-01-25T07:35:12;19.73;;;11.73;;
61322;SDS011;47203;48.428;11.974;2023-01-25T07:37:17;19.17;;;12.27;;
61322;SDS011;47203;48.428;11.974;2023-01-25T07:39:22;21.40;;;11.50;;
61322;SDS011;47203;48.428;11.974;2023-01-25T07:41:29;18.13;;;11.25;;
61322;SDS011;47203;48.428;11.974;2023-01-25T07:43:35;19.02;;;11.30;;
61322;SDS011;47203;48.428;11.974;2023-01-25T07:45:43;17.42;;;10.20;;
61322;SDS011;47203;48.428;11.974;2023-01-25T07:47:49;19.75;;;12.00;;
61322;SDS011;47203;48.428;11.974;2023-01-25T07:49:55;19.52;;;10.73;;
61322;SDS011;47203;48.428;11.974;2023-01-25T07:52:00;17.17;;;10.55;;
61322;SDS011;47203;48.428;11.974;2023-01-25T07:54:05;19.30;;;10.02;;
61322;SDS011;47203;48.428;11.974;2023-01-25T07:56:11;16.42;;;10.68;;
61322;SDS011;47203;48.428;11.974;2023-01-25T07:58:19;18.90;;;11.85;;
61322;SDS011;47203;48.428;11.974;2023-01-25T08:00:24;18.67;;;10.85;;
61322;SDS011;47203;48.428;11.974;2023-01-25T08:02:28;18.80;;;10.55;;
61322;SDS011;47203;48.428;11.974;2023-01-25T08:04:33;20.20;;;12.27;;
61322;SDS011;47203;48.428;11.974;2023-01-25T08:06:39;20.83;;;12.00;;
61322;SDS011;47203;48.428;11.974;2023-01-25T08:08:47;16.98;;;11.45;;
61322;SDS011;47203;48.428;11.974;2023-01-25T08:10:59;18.95;;;11.50;;
61322;SDS011;47203;48.428;11.974;2023-01-25T08:13:05;17.17;;;10.50;;
61322;SDS011;47203;48.428;11.974;2023-01-25T08:15:13;21.50;;;11.45;;
61322;SDS011;47203;48.428;11.974;2023-01-25T08:17:18;20.40;;;11.38;;
61322;SDS011;47203;48.428;11.974;2023-01-25T08:19:23;18.02;;;10.77;;
61322;SDS011;47203;48.428;11.974;2023-01-25T08:21:29;18.58;;;10.73;;
61322;SDS011;47203;48.428;11.974;2023-01-25T08:23:35;18.80;;;11.52;;
61322;SDS011;47203;48.428;11.974;2023-01-25T08:25:41;21.27;;;11.25;;
61322;SDS011;47203;48.428;11.974;2023-01-25T08:27:46;18.77;;;11.13;;
61322;SDS011;47203;48.428;11.974;2023-01-25T08:29:52;20.27;;;11.48;;
61322;SDS011;47203;48.428;11.974;2023-01-25T08:32:00;19.10;;;11.88;;
61322;SDS011;47203;48.428;11.974;2023-01-25T08:34:06;20.95;;;12.40;;
61322;SDS011;47203;48.428;11.974;2023-01-25T08:36:13;18.17;;;10.68;;
61322;SDS011;47203;48.428;11.974;2023-01-25T08:38:20;19.58;;;10.85;;
61322;SDS011;47203;48.428;11.974;2023-01-25T08:40:25;20.25;;;11.38;;
61322;SDS011;47203;48.428;11.974;2023-01-25T08:42:30;21.60;;;11.10;;
61322;SDS011;47203;48.428;11.974;2023-01-25T08:44:35;18.88;;;11.15;;
61322;SDS011;47203;48.428;11.974;2023-01-25T08:46:40;17.05;;;10.27;;
61322;SDS011;47203;48.428;11.974;2023-01-25T08:48:49;22.10;;;11.93;;
61322;SDS011;47203;48.428;11.974;2023-01-25T08:50:57;19.95;;;11.88;;
61322;SDS011;47203;48.428;11.974;2023-01-25T08:53:01;20.50;;;11.45;;
61322;SDS011;47203;48.428;11.974;2023-01-25T08:55:07;21.67;;;11.85;;
61322;SDS011;47203;48.428;11.974;2023-01-25T08:57:13;21.48;;;11.63;;
61322;SDS011;47203;48.428;11.974;2023-01-25T08:59:17;22.33;;;12.95;;
61322;SDS011;47203;48.428;11.974;2023-01-25T09:01:23;23.13;;;13.23;;
61322;SDS011;47203;48.428;11.974;2023-01-25T09:03:28;19.90;;;11.85;;
61322;SDS011;47203;48.428;11.974;2023-01-25T09:05:37;23.48;;;13.43;;
61322;SDS011;47203;48.428;11.974;2023-01-25T09:07:43;22.92;;;13.35;;
61322;SDS011;47203;48.428;11.974;2023-01-25T09:09:48;21.33;;;12.88;;
61322;SDS011;47203;48.428;11.974;2023-01-25T09:11:53;20.23;;;12.52;;
61322;SDS011;47203;48.428;11.974;2023-01-25T09:13:58;23.88;;;13.00;;
61322;SDS011;47203;48.428;11.974;2023-01-25T09:16:04;21.00;;;11.82;;
61322;SDS011;47203;48.428;11.974;2023-01-25T09:18:10;24.13;;;14.07;;
61322;SDS011;47203;48.428;11.974;2023-01-25T09:20:16;23.65;;;13.35;;
61322;SDS011;47203;48.428;11.974;2023-01-25T09:22:23;23.90;;;13.40;;
61322;SDS011;47203;48.428;11.974;2023-01-25T09:24:28;21.23;;;12.75;;
61322;SDS011;47203;48.428;11.974;2023-01-25T09:26:38;24.75;;;15.40;;
61322;SDS011;47203;48.428;11.974;2023-01-25T09:28:56;22.15;;;13.15;;
61322;SDS011;47203;48.428;11.974;2023-01-25T09:31:02;25.30;;;14.43;;
61322;SDS011;47203;48.428;11.974;2023-01-25T09:33:49;23.85;;;13.43;;
61322;SDS011;47203;48.428;11.974;2023-01-25T09:35:54;23.52;;;14.07;;
61322;SDS011;47203;48.428;11.974;2023-01-25T09:38:02;25.75;;;14.75;;
61322;SDS011;47203;48.428;11.974;2023-01-25T09:40:09;24.35;;;14.52;;
61322;SDS011;47203;48.428;11.974;2023-01-25T09:42:26;23.70;;;12.30;;
61322;SDS011;47203;48.428;11.974;2023-01-25T09:44:46;22.05;;;12.82;;
61322;SDS011;47203;48.428;11.974;2023-01-25T09:47:16;23.73;;;13.40;;
61322;SDS011;47203;48.428;11.974;2023-01-25T09:49:36;23.48;;;13.45;;
61322;SDS011;47203;48.428;11.974;2023-01-25T09:51:57;23.02;;;14.05;;
61322;SDS011;47203;48.428;11.974;2023-01-25T09:54:12;21.05;;;12.23;;
61322;SDS011;47203;48.428;11.974;2023-01-25T09:56:21;22.75;;;12.55;;
61322;SDS011;47203;48.428;11.974;2023-01-25T09:58:31;22.42;;;13.20;;
61322;SDS011;47203;48.428;11.974;2023-01-25T10:00:39;21.02;;;11.90;;
61322;SDS011;47203;48.428;11.974;2023-01-25T10:02:51;22.30;;;13.40;;
61322;SDS011;47203;48.428;11.974;2023-01-25T10:05:01;24.42;;;13.68;;
61322;SDS011;47203;48.428;11.974;2023-01-25T10:07:18;24.00;;;13.57;;
61322;SDS011;47203;48.428;11.974;2023-01-25T10:09:30;22.42;;;13.05;;
61322;SDS011;47203;48.428;11.974;2023-01-25T10:11:40;22.70;;;12.32;;
61322;SDS011;47203;48.428;11.974;2023-01-25T10:13:46;20.90;;;11.27;;
61322;SDS011;47203;48.428;11.974;2023-01-25T10:15:51;20.83;;;13.25;;
61322;SDS011;47203;48.428;11.974;2023-01-25T10:18:05;22.23;;;12.32;;
61322;SDS011;47203;48.428;11.974;2023-01-25T10:20:25;24.10;;;12.95;;
61322;SDS011;47203;48.428;11.974;2023-01-25T10:22:39;20.55;;;12.07;;
61322;SDS011;47203;48.428;11.974;2023-01-25T10:27:44;23.33;;;12.45;;
61322;SDS011;47203;48.428;11.974;2023-01-25T10:30:07;25.60;;;12.35;;
61322;SDS011;47203;48.428;11.974;2023-01-25T10:32:24;22.70;;;13.35;;
61322;SDS011;47203;48.428;11.974;2023-01-25T10:34:33;22.33;;;12.90;;
61322;SDS011;47203;48.428;11.974;2023-01-25T10:36:59;21.45;;;13.38;;
61322;SDS011;47203;48.428;11.974;2023-01-25T10:39:05;25.88;;;14.85;;
61322;SDS011;47203;48.428;11.974;2023-01-25T10:41:11;29.10;;;16.15;;
61322;SDS011;47203;48.428;11.974;2023-01-25T10:43:24;24.17;;;15.20;;
61322;SDS011;47203;48.428;11.974;2023-01-25T10:45:29;26.77;;;12.88;;
61322;SDS011;47203;48.428;11.974;2023-01-25T10:47:34;24.08;;;14.10;;
61322;SDS011;47203;48.428;11.974;2023-01-25T10:49:41;22.63;;;13.45;;
61322;SDS011;47203;48.428;11.974;2023-01-25T10:51:47;23.98;;;14.80;;
61322;SDS011;47203;48.428;11.974;2023-01-25T10:53:53;22.13;;;13.15;;
61322;SDS011;47203;48.428;11.974;2023-01-25T10:56:13;23.20;;;12.60;;
61322;SDS011;47203;48.428;11.974;2023-01-25T10:58:33;29.08;;;14.55;;
61322;SDS011;47203;48.428;11.974;2023-01-25T11:00:40;32.38;;;18.42;;
61322;SDS011;47203;48.428;11.974;2023-01-25T11:02:45;28.98;;;17.08;;
61322;SDS011;47203;48.428;11.974;2023-01-25T11:04:51;25.17;;;14.48;;
61322;SDS011;47203;48.428;11.974;2023-01-25T11:06:56;23.25;;;12.35;;
61322;SDS011;47203;48.428;11.974;2023-01-25T11:09:28;26.00;;;14.55;;
61322;SDS011;47203;48.428;11.974;2023-01-25T11:11:36;23.13;;;13.30;;
61322;SDS011;47203;48.428;11.974;2023-01-25T11:13:44;23.80;;;13.75;;
61322;SDS011;47203;48.428;11.974;2023-01-25T11:15:50;23.17;;;13.20;;
61322;SDS011;47203;48.428;11.974;2023-01-25T11:18:05;21.38;;;13.38;;
61322;SDS011;47203;48.428;11.974;2023-01-25T11:20:19;23.60;;;12.77;;
61322;SDS011;47203;48.428;11.974;2023-01-25T11:22:24;22.67;;;13.57;;
61322;SDS011;47203;48.428;11.974;2023-01-25T11:24:30;24.48;;;13.35;;
61322;SDS011;47203;48.428;11.974;2023-01-25T11:26:37;22.42;;;12.10;;
61322;SDS011;47203;48.428;11.974;2023-01-25T11:29:09;22.27;;;13.60;;
61322;SDS011;47203;48.428;11.974;2023-01-25T11:31:18;25.52;;;13.35;;
61322;SDS011;47203;48.428;11.974;2023-01-25T11:33:26;22.25;;;13.93;;
61322;SDS011;47203;48.428;11.974;2023-01-25T11:35:32;24.77;;;14.73;;
61322;SDS011;47203;48.428;11.974;2023-01-25T11:37:55;23.83;;;13.75;;
61322;SDS011;47203;48.428;11.974;2023-01-25T11:40:14;21.00;;;13.30;;
61322;SDS011;47203;48.428;11.974;2023-01-25T11:42:26;24.23;;;13.80;;
61322;SDS011;47203;48.428;11.974;2023-01-25T11:47:11;24.70;;;14.38;;
61322;SDS011;47203;48.428;11.974;2023-01-25T11:49:28;24.92;;;15.45;;
61322;SDS011;47203;48.428;11.974;2023-01-25T11:51:44;27.25;;;15.80;;
61322;SDS011;47203;48.428;11.974;2023-01-25T11:54:01;25.35;;;14.38;;
61322;SDS011;47203;48.428;11.974;2023-01-25T11:56:14;24.15;;;13.13;;
61322;SDS011;47203;48.428;11.974;2023-01-25T11:58:42;25.88;;;14.95;;
61322;SDS011;47203;48.428;11.974;2023-01-25T12:01:01;23.98;;;13.55;;
61322;SDS011;47203;48.428;11.974;2023-01-25T12:03:18;25.90;;;15.57;;
61322;SDS011;47203;48.428;11.974;2023-01-25T12:05:55;23.52;;;13.38;;
61322;SDS011;47203;48.428;11.974;2023-01-25T12:08:11;23.98;;;14.18;;
61322;SDS011;47203;48.428;11.974;2023-01-25T12:10:26;24.27;;;13.02;;
61322;SDS011;47203;48.428;11.974;2023-01-25T12:12:41;22.10;;;12.77;;
61322;SDS011;47203;48.428;11.974;2023-01-25T12:15:02;27.35;;;14.95;;
61322;SDS011;47203;48.428;11.974;2023-01-25T12:17:24;29.27;;;15.83;;
61322;SDS011;47203;48.428;11.974;2023-01-25T12:19:43;24.60;;;13.35;;
61322;SDS011;47203;48.428;11.974;2023-01-25T12:22:01;21.77;;;13.43;;
61322;SDS011;47203;48.428;11.974;2023-01-25T12:24:21;25.58;;;15.85;;
61322;SDS011;47203;48.428;11.974;2023-01-25T12:26:41;25.00;;;13.85;;
61322;SDS011;47203;48.428;11.974;2023-01-25T12:28:56;26.30;;;15.15;;
61322;SDS011;47203;48.428;11.974;2023-01-25T12:31:10;27.52;;;15.65;;
61322;SDS011;47203;48.428;11.974;2023-01-25T12:33:24;26.73;;;16.10;;